01:06 Bike Moetz - Roppener Haengebruecke - Oetztaltrail - Silz - Moetz
Ort Moetz Datum 10.10.2010 15:28:35
Kategorie MTB
Distanz 28,82 Kilometer Steigung 123,7 Meter Gefälle -75,7 Meter
Gesamt Zeit 02:02:16 Aktiv 02:02:16 Pause 00:00:00
Durchs. Tempo 14,1 km/h Tempo max. 40,3 km/h Tempo min. 8,1 km/h
Kalorien 0 Durchs. HF 137 BPM HF max. 164 BPM
Wetter 18 °C Clear
Ausrüstung Schwalbe - Nobby Nic vorne
Schwalbe - Racing Ralph hinten
Shimano - HG-93 XT
Specialized - BG S-Works MTB
Specialized - Stumpjumper Comp
SwissStop - Disc17 Avid Juicy
Notiz Moetz - Roppener Haengebruecke - Oetztaltrail - Silz - Moetz ... Pause in Silz beim Fussballspiel von Daniel ... garmin connect
Splits
Distanz (km) Gesamt Zeit Split Zeit Split Tempo Split Tempo Höhenprofil (m)
1,00 00:02:22 00:02:22 00:02:22 25,4 -3,38
2,00 00:04:17 00:01:55 00:01:55 31,3 4,45
3,00 00:06:17 00:02:00 00:02:00 30,0 5,03
4,00 00:08:08 00:01:51 00:01:51 32,4 1,97
5,00 00:09:59 00:01:51 00:01:51 32,4 -1,42
6,00 00:11:54 00:01:55 00:01:55 31,3 3,35
7,00 00:13:56 00:02:02 00:02:02 29,5 16,35
8,00 00:17:15 00:03:19 00:03:19 18,1 43,29
9,00 00:19:22 00:02:07 00:02:07 28,3 -11,88
10,00 00:21:03 00:01:41 00:01:41 35,6 -16,23
11,00 00:22:53 00:01:50 00:01:50 32,7 -15,64
12,00 00:25:37 00:02:44 00:02:44 22,0 25,95
13,00 00:28:00 00:02:23 00:02:23 25,2 -3,52
14,00 00:30:22 00:02:22 00:02:22 25,4 0,86
15,00 00:33:08 00:02:46 00:02:46 21,7 -6,27
16,00 00:35:44 00:02:36 00:02:36 23,1 1,54
17,00 00:37:55 00:02:11 00:02:11 27,5 -3,45
18,00 00:40:16 00:02:21 00:02:21 25,5 -7,99
19,00 00:43:17 00:03:01 00:03:01 19,9 5,85
20,00 00:46:03 00:02:46 00:02:46 21,7 -19,22
21,00 00:48:24 00:02:21 00:02:21 25,5 -8,63
22,00 00:50:45 00:02:21 00:02:21 25,5 -0,15
23,00 00:53:29 00:02:44 00:02:44 22,0 4,15
24,00 01:50:15 00:56:46 00:56:46 1,1 -5,64
25,00 01:52:24 00:02:09 00:02:09 27,9 -2,73
26,00 01:54:35 00:02:11 00:02:11 27,5 -8,63
27,00 01:57:19 00:02:44 00:02:44 22,0 -7,71
28,00 01:59:24 00:02:05 00:02:05 28,8 -2,28